createdAt,value
2023-04-18T00:01:16.253Z,9.07
2023-04-18T00:03:46.014Z,9.03
2023-04-18T00:06:14.066Z,8.80
2023-04-18T00:08:41.154Z,9.30
2023-04-18T00:11:08.214Z,10.33
2023-04-18T00:13:35.507Z,8.77
2023-04-18T00:16:02.574Z,13.60
2023-04-18T00:18:29.601Z,10.83
2023-04-18T00:20:57.127Z,8.67
2023-04-18T00:23:28.019Z,10.30
2023-04-18T00:25:55.009Z,9.33
2023-04-18T00:28:21.909Z,8.97
2023-04-18T00:30:49.109Z,8.73
2023-04-18T00:33:16.292Z,8.87
2023-04-18T00:35:44.043Z,9.00
2023-04-18T00:38:10.968Z,9.80
2023-04-18T00:40:38.787Z,9.40
2023-04-18T00:43:07.909Z,9.00
2023-04-18T00:45:35.433Z,10.70
2023-04-18T00:48:02.432Z,8.50
2023-04-18T00:50:29.606Z,9.07
2023-04-18T00:52:57.201Z,9.10
2023-04-18T00:55:24.751Z,10.97
2023-04-18T00:57:52.297Z,9.83
2023-04-18T01:00:19.393Z,9.73
2023-04-18T01:02:47.109Z,8.97
2023-04-18T01:05:14.484Z,10.30
2023-04-18T01:07:41.753Z,9.17
2023-04-18T01:10:10.357Z,8.80
2023-04-18T01:12:37.770Z,10.07
2023-04-18T01:15:05.751Z,9.83
2023-04-18T01:17:38.563Z,9.37
2023-04-18T01:20:06.521Z,9.47
2023-04-18T01:22:33.866Z,9.83
2023-04-18T01:25:01.057Z,8.30
2023-04-18T01:27:27.991Z,10.03
2023-04-18T01:29:54.887Z,8.37
2023-04-18T01:32:23.047Z,8.63
2023-04-18T01:34:50.168Z,10.30
2023-04-18T01:37:17.650Z,8.90
2023-04-18T01:39:45.358Z,8.80
2023-04-18T01:42:12.265Z,8.23
2023-04-18T01:44:39.230Z,9.03
2023-04-18T01:47:06.145Z,8.80
2023-04-18T01:49:33.124Z,8.93
2023-04-18T01:52:00.034Z,9.57
2023-04-18T01:54:27.002Z,8.93
2023-04-18T01:56:53.893Z,8.60
2023-04-18T01:59:20.886Z,10.70
2023-04-18T02:01:47.808Z,9.77
2023-04-18T02:04:15.030Z,9.43
2023-04-18T02:06:42.257Z,11.27
2023-04-18T02:09:09.292Z,9.07
2023-04-18T02:11:36.242Z,10.33
2023-04-18T02:14:03.483Z,9.33
2023-04-18T02:16:30.455Z,9.17
2023-04-18T02:18:57.889Z,11.63
2023-04-18T02:21:24.780Z,11.33
2023-04-18T02:23:52.644Z,10.00
2023-04-18T02:26:22.374Z,10.13
2023-04-18T02:28:49.452Z,9.10
2023-04-18T02:31:17.105Z,8.97
2023-04-18T02:33:46.487Z,8.67
2023-04-18T02:36:13.851Z,8.87
2023-04-18T02:38:42.633Z,9.40
2023-04-18T02:41:14.959Z,9.20
2023-04-18T02:43:42.082Z,10.47
2023-04-18T02:46:09.177Z,9.60
2023-04-18T02:48:36.184Z,9.87
2023-04-18T02:51:05.262Z,9.77
2023-04-18T02:53:35.497Z,9.40
2023-04-18T02:56:02.777Z,11.57
2023-04-18T02:58:49.894Z,9.30
2023-04-18T03:01:37.149Z,9.73
2023-04-18T03:04:10.801Z,9.83
2023-04-18T03:06:42.666Z,12.40
2023-04-18T03:09:10.068Z,10.40
2023-04-18T03:11:42.679Z,11.00
2023-04-18T03:14:10.018Z,9.27
2023-04-18T03:16:45.484Z,10.93
2023-04-18T03:19:18.276Z,9.93
2023-04-18T03:21:46.481Z,12.77
2023-04-18T03:24:13.657Z,11.20
2023-04-18T03:26:43.165Z,11.33
2023-04-18T03:29:10.637Z,10.30
2023-04-18T03:31:37.621Z,11.40
2023-04-18T03:34:04.608Z,10.93
2023-04-18T03:36:32.176Z,11.60
2023-04-18T03:38:59.307Z,10.57
2023-04-18T03:41:27.070Z,13.27
2023-04-18T03:43:56.767Z,10.87
2023-04-18T03:46:24.646Z,11.03
2023-04-18T03:48:53.637Z,11.83
2023-04-18T03:51:21.512Z,10.63
2023-04-18T03:53:48.479Z,10.83
2023-04-18T03:56:17.207Z,12.30
2023-04-18T03:58:52.083Z,14.63
2023-04-18T04:01:21.627Z,9.87
2023-04-18T04:03:51.344Z,10.27
2023-04-18T04:06:18.792Z,12.07
2023-04-18T04:08:45.730Z,12.30
2023-04-18T04:11:14.752Z,10.20
2023-04-18T04:13:42.519Z,10.20
2023-04-18T04:16:10.961Z,10.23
2023-04-18T04:18:38.567Z,9.93
2023-04-18T04:21:06.747Z,9.23
2023-04-18T04:23:48.010Z,8.73
2023-04-18T04:26:27.666Z,10.00
2023-04-18T04:29:03.697Z,10.77
2023-04-18T04:31:32.849Z,9.33
2023-04-18T04:33:59.800Z,9.20
2023-04-18T04:36:27.252Z,9.17
2023-04-18T04:38:57.110Z,9.43
2023-04-18T04:41:32.443Z,9.73
2023-04-18T04:43:59.820Z,10.13
2023-04-18T04:46:31.172Z,9.43
2023-04-18T04:49:00.996Z,10.07
2023-04-18T04:51:27.999Z,7.73
2023-04-18T04:53:55.611Z,8.23
2023-04-18T04:56:23.205Z,11.27
2023-04-18T04:58:50.608Z,8.33
2023-04-18T05:01:30.292Z,8.33
2023-04-18T05:03:57.411Z,10.03
2023-04-18T05:06:24.742Z,9.23
2023-04-18T05:08:51.758Z,10.23
2023-04-18T05:11:18.792Z,10.97
2023-04-18T05:13:45.799Z,8.23
2023-04-18T05:16:12.862Z,8.50
2023-04-18T05:18:41.362Z,8.70
2023-04-18T05:21:08.335Z,8.00
2023-04-18T05:23:37.025Z,12.80
2023-04-18T05:26:05.069Z,10.23
2023-04-18T05:28:32.419Z,8.77
2023-04-18T05:31:02.169Z,8.23
2023-04-18T05:33:30.753Z,11.77
2023-04-18T05:35:58.421Z,10.57
2023-04-18T05:38:25.753Z,9.97
2023-04-18T05:40:55.405Z,9.30
2023-04-18T05:43:22.689Z,8.40
2023-04-18T05:45:50.593Z,7.90
2023-04-18T05:48:17.869Z,7.97
2023-04-18T05:50:44.783Z,8.80
2023-04-18T05:53:11.871Z,8.40
2023-04-18T05:55:40.957Z,10.03
2023-04-18T05:58:07.978Z,8.47
2023-04-18T06:00:35.289Z,7.53
2023-04-18T06:03:02.641Z,9.53
2023-04-18T06:05:30.270Z,9.30
2023-04-18T06:07:57.387Z,8.50
2023-04-18T06:10:24.441Z,11.60
2023-04-18T06:12:51.412Z,7.53
2023-04-18T06:15:18.434Z,8.30
2023-04-18T06:17:45.408Z,8.60
2023-04-18T06:20:12.448Z,8.77
2023-04-18T06:22:39.471Z,7.50
2023-04-18T06:25:08.765Z,7.47
2023-04-18T06:27:37.104Z,13.70
2023-04-18T06:30:05.852Z,12.47
2023-04-18T06:32:32.845Z,10.10
2023-04-18T06:34:59.812Z,8.87
2023-04-18T06:37:26.923Z,9.13
2023-04-18T06:39:53.896Z,8.83
2023-04-18T06:42:22.343Z,9.83
2023-04-18T06:44:50.215Z,9.73
2023-04-18T06:47:17.604Z,8.27
2023-04-18T06:49:44.434Z,8.40
2023-04-18T06:52:11.460Z,8.97
2023-04-18T06:54:38.388Z,10.63
2023-04-18T06:57:05.554Z,8.13
2023-04-18T06:59:32.489Z,8.70
2023-04-18T07:01:59.687Z,9.90
2023-04-18T07:04:26.960Z,8.57
2023-04-18T07:06:53.957Z,9.33
2023-04-18T07:09:21.068Z,14.53
2023-04-18T07:11:48.160Z,10.67
2023-04-18T07:14:15.383Z,10.63
2023-04-18T07:16:42.572Z,10.50
2023-04-18T07:19:09.567Z,11.27
2023-04-18T07:21:37.759Z,10.60
2023-04-18T07:24:04.784Z,10.70
2023-04-18T07:26:32.389Z,13.83
2023-04-18T07:28:59.539Z,12.23
2023-04-18T07:31:28.522Z,11.47
2023-04-18T07:33:56.195Z,10.17
2023-04-18T07:36:23.415Z,12.30
2023-04-18T07:38:51.711Z,13.37
2023-04-18T07:41:18.647Z,10.40
2023-04-18T07:43:45.716Z,14.13
2023-04-18T07:46:12.698Z,11.27
2023-04-18T07:48:39.676Z,11.33
2023-04-18T07:51:06.748Z,14.33
2023-04-18T07:53:36.442Z,10.93
2023-04-18T07:56:03.475Z,14.17
2023-04-18T07:58:31.923Z,11.73
2023-04-18T08:00:58.866Z,11.67
2023-04-18T08:03:25.887Z,12.70
2023-04-18T08:05:53.061Z,13.10
2023-04-18T08:08:20.000Z,12.10
2023-04-18T08:10:47.118Z,11.97
2023-04-18T08:13:14.076Z,12.63
2023-04-18T08:15:41.401Z,10.27
2023-04-18T08:18:08.382Z,10.27
2023-04-18T08:20:37.398Z,14.00
2023-04-18T08:23:08.510Z,10.70
2023-04-18T08:25:37.467Z,13.07
2023-04-18T08:28:04.636Z,10.50
2023-04-18T08:30:31.820Z,11.93
2023-04-18T08:33:00.277Z,11.33
2023-04-18T08:35:27.573Z,9.63
2023-04-18T08:37:54.515Z,11.23
2023-04-18T08:40:21.715Z,8.73
2023-04-18T08:42:51.871Z,10.87
2023-04-18T08:45:20.957Z,11.17
2023-04-18T08:47:48.045Z,8.67
2023-04-18T08:50:15.084Z,9.40
2023-04-18T08:52:47.369Z,9.67
2023-04-18T08:55:14.613Z,7.47
2023-04-18T08:57:41.595Z,6.80
2023-04-18T09:00:11.418Z,5.67
2023-04-18T09:02:43.060Z,7.30
2023-04-18T09:05:18.905Z,8.00
2023-04-18T09:07:50.452Z,5.53
2023-04-18T09:10:47.199Z,6.23
2023-04-18T09:13:14.419Z,7.93
2023-04-18T09:15:41.619Z,6.83
2023-04-18T09:18:10.483Z,6.90
2023-04-18T09:20:44.020Z,7.33
2023-04-18T09:23:16.274Z,7.47
2023-04-18T09:25:46.799Z,7.30
2023-04-18T09:28:23.394Z,7.40
2023-04-18T09:30:54.401Z,10.17
2023-04-18T09:33:32.463Z,7.10
2023-04-18T09:36:18.922Z,8.53
2023-04-18T09:38:46.597Z,10.93
2023-04-18T09:41:15.917Z,8.10
2023-04-18T09:43:46.721Z,7.10
2023-04-18T09:46:14.631Z,9.20
2023-04-18T09:48:42.014Z,9.00
2023-04-18T09:51:15.131Z,8.47
2023-04-18T09:53:47.750Z,9.20
2023-04-18T09:56:26.670Z,7.13
2023-04-18T09:59:04.731Z,7.13
2023-04-18T10:01:32.768Z,6.57
2023-04-18T10:04:02.238Z,7.27
2023-04-18T10:06:30.142Z,8.00
2023-04-18T10:08:57.785Z,5.57
2023-04-18T10:11:25.262Z,6.17
2023-04-18T10:13:57.593Z,6.10
2023-04-18T10:16:26.292Z,3.70
2023-04-18T10:18:53.178Z,4.77
2023-04-18T10:21:21.675Z,3.40
2023-04-18T10:23:51.345Z,3.50
2023-04-18T10:26:18.271Z,3.27
2023-04-18T10:28:56.910Z,4.67
2023-04-18T10:31:28.727Z,3.13
2023-04-18T10:34:17.893Z,3.17
2023-04-18T10:37:03.796Z,2.87
2023-04-18T10:39:30.990Z,3.10
2023-04-18T10:41:57.860Z,2.63
2023-04-18T10:44:25.041Z,2.60
2023-04-18T10:46:51.987Z,2.63
2023-04-18T10:49:30.336Z,2.80
2023-04-18T10:52:01.151Z,2.83
2023-04-18T10:54:49.323Z,2.63
2023-04-18T10:57:16.416Z,2.23
2023-04-18T10:59:48.061Z,2.87
2023-04-18T11:02:30.162Z,2.30
2023-04-18T11:05:02.915Z,5.57
2023-04-18T11:07:36.426Z,3.87
2023-04-18T11:10:05.052Z,3.10
2023-04-18T11:14:11.150Z,3.27
2023-04-18T11:15:23.344Z,2.87
2023-04-18T11:18:04.486Z,2.67
2023-04-18T11:20:49.315Z,2.97
2023-04-18T11:23:19.664Z,3.90
2023-04-18T11:25:49.433Z,4.50
2023-04-18T11:28:21.110Z,5.47
2023-04-18T11:30:48.474Z,3.20
2023-04-18T11:33:15.813Z,2.97
2023-04-18T11:35:45.565Z,3.20
2023-04-18T11:38:14.379Z,2.80
2023-04-18T11:40:51.235Z,2.53
2023-04-18T11:43:23.372Z,3.63
2023-04-18T11:45:57.195Z,2.67
2023-04-18T11:48:33.720Z,2.70
2023-04-18T11:51:01.143Z,2.60
2023-04-18T11:53:38.773Z,2.43
2023-04-18T11:56:06.433Z,3.47
2023-04-18T11:58:36.953Z,2.67
2023-04-18T12:01:20.544Z,2.30
2023-04-18T12:04:05.283Z,2.77
2023-04-18T12:06:48.705Z,2.63
2023-04-18T12:09:21.265Z,3.87
2023-04-18T12:12:01.031Z,2.73
2023-04-18T12:14:28.698Z,3.53
2023-04-18T12:16:56.310Z,2.47
2023-04-18T12:19:28.409Z,2.60
2023-04-18T12:22:00.712Z,6.53
2023-04-18T12:24:32.021Z,2.50
2023-04-18T12:26:59.374Z,2.67
2023-04-18T12:29:29.011Z,3.47
2023-04-18T12:31:56.048Z,2.50
2023-04-18T12:34:22.970Z,2.53
2023-04-18T12:36:49.877Z,2.60
2023-04-18T12:39:16.827Z,2.63
2023-04-18T12:41:44.247Z,5.07
2023-04-18T12:44:11.580Z,2.03
2023-04-18T12:46:38.817Z,3.87
2023-04-18T12:49:05.883Z,2.47
2023-04-18T12:51:32.938Z,2.77
2023-04-18T12:53:59.883Z,3.50
2023-04-18T12:56:26.867Z,2.27
2023-04-18T12:58:53.740Z,2.30
2023-04-18T13:01:21.019Z,3.77
2023-04-18T13:03:56.545Z,3.27
2023-04-18T13:06:31.284Z,3.37
2023-04-18T13:08:58.798Z,3.90
2023-04-18T13:11:28.628Z,3.17
2023-04-18T13:13:55.707Z,2.53
2023-04-18T13:16:22.776Z,2.73
2023-04-18T13:18:49.682Z,4.53
2023-04-18T13:21:16.622Z,2.70
2023-04-18T13:23:43.539Z,2.33
2023-04-18T13:26:10.577Z,2.50
2023-04-18T13:28:37.485Z,2.43
2023-04-18T13:31:04.506Z,3.40
2023-04-18T13:33:31.329Z,2.57
2023-04-18T13:35:58.332Z,3.70
2023-04-18T13:38:25.212Z,2.20
2023-04-18T13:40:58.235Z,2.23
2023-04-18T13:43:28.101Z,2.47
2023-04-18T13:45:55.027Z,2.53
2023-04-18T13:48:21.983Z,2.47
2023-04-18T13:50:49.413Z,2.30
2023-04-18T13:53:18.126Z,2.10
2023-04-18T13:55:45.084Z,4.83
2023-04-18T13:58:12.317Z,2.37
2023-04-18T14:00:39.365Z,2.50
2023-04-18T14:03:06.493Z,4.43
2023-04-18T14:05:33.585Z,2.00
2023-04-18T14:08:04.113Z,3.37
2023-04-18T14:10:31.579Z,2.37
2023-04-18T14:12:58.492Z,2.10
2023-04-18T14:15:25.842Z,2.37
2023-04-18T14:17:52.802Z,2.23
2023-04-18T14:20:19.758Z,2.27
2023-04-18T14:22:48.986Z,2.50
2023-04-18T14:25:19.993Z,3.97
2023-04-18T14:27:48.147Z,2.17
2023-04-18T14:30:15.656Z,2.00
2023-04-18T14:32:42.637Z,2.63
2023-04-18T14:35:10.430Z,2.47
2023-04-18T14:37:37.382Z,2.20
2023-04-18T14:40:05.479Z,4.47
2023-04-18T14:42:32.705Z,3.30
2023-04-18T14:44:59.711Z,2.37
2023-04-18T14:47:31.645Z,2.33
2023-04-18T14:49:58.652Z,2.10
2023-04-18T14:52:25.644Z,1.80
2023-04-18T14:54:52.575Z,2.43
2023-04-18T14:57:19.477Z,2.20
2023-04-18T14:59:46.445Z,2.27
2023-04-18T15:02:13.480Z,3.33
2023-04-18T15:04:40.821Z,2.37
2023-04-18T15:07:07.775Z,2.20
2023-04-18T15:09:38.271Z,3.87
2023-04-18T15:12:06.177Z,1.60
2023-04-18T15:14:33.813Z,2.37
2023-04-18T15:17:01.177Z,3.60
2023-04-18T15:19:30.394Z,1.60
2023-04-18T15:21:57.785Z,1.70
2023-04-18T15:24:24.694Z,3.03
2023-04-18T15:26:51.803Z,2.47
2023-04-18T15:29:18.783Z,2.47
2023-04-18T15:31:46.753Z,3.63
2023-04-18T15:34:14.034Z,1.40
2023-04-18T15:36:41.468Z,1.80
2023-04-18T15:39:09.112Z,3.13
2023-04-18T15:41:36.997Z,1.40
2023-04-18T15:44:06.080Z,1.30
2023-04-18T15:46:34.842Z,1.33
2023-04-18T15:49:01.873Z,1.40
2023-04-18T15:51:30.405Z,1.60
2023-04-18T15:53:57.447Z,1.30
2023-04-18T15:56:26.785Z,1.13
2023-04-18T15:58:56.799Z,1.30
2023-04-18T16:01:23.878Z,1.20
2023-04-18T16:03:50.915Z,1.37
2023-04-18T16:06:22.295Z,1.63
2023-04-18T16:08:50.035Z,1.60
2023-04-18T16:11:18.136Z,2.87
2023-04-18T16:13:45.164Z,2.10
2023-04-18T16:16:12.118Z,1.60
2023-04-18T16:18:39.885Z,1.17
2023-04-18T16:21:06.757Z,2.13
2023-04-18T16:23:33.894Z,3.20
2023-04-18T16:26:00.920Z,2.13
2023-04-18T16:28:28.071Z,2.17
2023-04-18T16:30:55.692Z,1.53
2023-04-18T16:33:26.076Z,1.93
2023-04-18T16:35:53.205Z,4.23
2023-04-18T16:38:23.482Z,2.43
2023-04-18T16:40:50.584Z,2.20
2023-04-18T16:43:17.533Z,1.23
2023-04-18T16:45:44.414Z,2.80
2023-04-18T16:48:11.632Z,1.20
2023-04-18T16:50:38.600Z,1.00
2023-04-18T16:53:05.828Z,2.00
2023-04-18T16:55:32.773Z,1.30
2023-04-18T16:57:59.720Z,2.27
2023-04-18T17:00:27.379Z,2.20
2023-04-18T17:02:55.943Z,2.53
2023-04-18T17:05:23.819Z,3.17
2023-04-18T17:07:51.634Z,2.00
2023-04-18T17:10:21.713Z,1.50
2023-04-18T17:12:49.355Z,1.53
2023-04-18T17:15:19.207Z,1.40
2023-04-18T17:17:46.324Z,2.90
2023-04-18T17:20:13.318Z,3.13
2023-04-18T17:22:41.086Z,3.37
2023-04-18T17:25:08.405Z,4.33
2023-04-18T17:27:35.430Z,8.50
2023-04-18T17:30:02.301Z,6.87
2023-04-18T17:32:29.310Z,4.03
2023-04-18T17:34:56.210Z,5.30
2023-04-18T17:37:23.208Z,11.23
2023-04-18T17:39:50.111Z,9.67
2023-04-18T17:42:18.378Z,5.87
2023-04-18T17:44:45.255Z,5.30
2023-04-18T17:47:12.300Z,4.80
2023-04-18T17:49:39.299Z,3.73
2023-04-18T17:52:06.258Z,3.43
2023-04-18T17:54:33.171Z,3.43
2023-04-18T17:57:00.121Z,2.67
2023-04-18T17:59:27.750Z,2.47
2023-04-18T18:01:54.906Z,2.33
2023-04-18T18:04:24.799Z,3.30
2023-04-18T18:06:57.818Z,2.60
2023-04-18T18:09:24.776Z,5.17
2023-04-18T18:11:52.968Z,2.43
2023-04-18T18:14:21.681Z,2.70
2023-04-18T18:16:48.909Z,2.20
2023-04-18T18:19:16.654Z,3.73
2023-04-18T18:21:43.828Z,3.93
2023-04-18T18:24:10.897Z,2.23
2023-04-18T18:26:37.826Z,6.70
2023-04-18T18:29:09.333Z,3.30
2023-04-18T18:31:36.789Z,6.17
2023-04-18T18:34:04.540Z,6.67
2023-04-18T18:36:31.593Z,4.53
2023-04-18T18:38:58.561Z,3.73
2023-04-18T18:41:25.674Z,2.03
2023-04-18T18:43:52.630Z,6.77
2023-04-18T18:46:20.552Z,2.37
2023-04-18T18:48:48.520Z,3.27
2023-04-18T18:51:17.953Z,3.30
2023-04-18T18:53:46.189Z,4.60
2023-04-18T18:56:13.228Z,2.23
2023-04-18T18:58:40.497Z,2.90
2023-04-18T19:01:07.483Z,3.73
2023-04-18T19:03:35.695Z,2.90
2023-04-18T19:06:04.343Z,4.33
2023-04-18T19:08:31.299Z,3.27
2023-04-18T19:10:58.237Z,4.67
2023-04-18T19:13:25.174Z,5.03
2023-04-18T19:15:52.176Z,3.53
2023-04-18T19:18:20.232Z,2.83
2023-04-18T19:20:47.387Z,6.13
2023-04-18T19:23:14.238Z,4.57
2023-04-18T19:25:41.201Z,2.53
2023-04-18T19:28:08.310Z,5.60
2023-04-18T19:30:35.288Z,2.63
2023-04-18T19:33:02.257Z,2.17
2023-04-18T19:35:29.412Z,3.80
2023-04-18T19:38:01.420Z,3.50
2023-04-18T19:40:29.613Z,4.30
2023-04-18T19:42:56.742Z,3.90
2023-04-18T19:45:24.140Z,3.47
2023-04-18T19:47:51.037Z,4.27
2023-04-18T19:50:18.226Z,4.70
2023-04-18T19:52:45.129Z,3.23
2023-04-18T19:55:12.329Z,5.37
2023-04-18T19:57:40.232Z,2.90
2023-04-18T20:00:12.580Z,4.37
2023-04-18T20:02:40.764Z,3.43
2023-04-18T20:05:09.172Z,7.13
2023-04-18T20:07:36.449Z,2.80
2023-04-18T20:10:04.395Z,4.80
2023-04-18T20:12:31.504Z,4.07
2023-04-18T20:14:59.037Z,7.63
2023-04-18T20:17:26.464Z,4.50
2023-04-18T20:19:57.101Z,8.53
2023-04-18T20:22:26.666Z,4.77
2023-04-18T20:24:57.103Z,8.10
2023-04-18T20:27:24.143Z,5.87
2023-04-18T20:29:51.091Z,5.17
2023-04-18T20:32:18.110Z,5.17
2023-04-18T20:34:46.713Z,6.17
2023-04-18T20:37:18.606Z,5.73
2023-04-18T20:39:45.681Z,4.07
2023-04-18T20:42:14.747Z,7.10
2023-04-18T20:44:46.725Z,5.67
2023-04-18T20:47:15.777Z,4.20
2023-04-18T20:49:43.039Z,4.67
2023-04-18T20:52:10.053Z,4.63
2023-04-18T20:54:37.041Z,6.93
2023-04-18T20:57:04.075Z,4.43
2023-04-18T20:59:30.937Z,6.33
2023-04-18T21:01:58.063Z,7.67
2023-04-18T21:04:25.335Z,6.37
2023-04-18T21:06:52.696Z,4.90
2023-04-18T21:09:19.653Z,7.00
2023-04-18T21:11:46.661Z,4.13
2023-04-18T21:14:13.787Z,5.67
2023-04-18T21:16:41.079Z,4.37
2023-04-18T21:19:08.652Z,7.57
2023-04-18T21:21:35.644Z,8.70
2023-04-18T21:24:02.704Z,4.77
2023-04-18T21:26:29.730Z,4.53
2023-04-18T21:29:01.840Z,4.97
2023-04-18T21:31:34.161Z,6.07
2023-04-18T21:34:03.453Z,4.30
2023-04-18T21:36:31.256Z,4.40
2023-04-18T21:38:59.749Z,5.93
2023-04-18T21:41:27.146Z,6.33
2023-04-18T21:43:54.356Z,4.90
2023-04-18T21:46:21.462Z,4.30
2023-04-18T21:48:48.949Z,6.77
2023-04-18T21:51:16.963Z,5.60
2023-04-18T21:53:44.212Z,5.00
2023-04-18T21:56:11.543Z,4.40
2023-04-18T21:58:38.616Z,4.10
2023-04-18T22:01:05.708Z,5.53
2023-04-18T22:03:34.230Z,4.10
2023-04-18T22:06:01.678Z,4.47
2023-04-18T22:08:29.493Z,5.53
2023-04-18T22:10:59.171Z,5.83
2023-04-18T22:13:30.130Z,5.17
2023-04-18T22:15:58.390Z,6.77
2023-04-18T22:18:25.518Z,8.93
2023-04-18T22:20:53.824Z,6.87
2023-04-18T22:23:20.824Z,7.00
2023-04-18T22:25:48.223Z,7.50
2023-04-18T22:28:15.081Z,7.90
2023-04-18T22:30:42.141Z,11.40
2023-04-18T22:33:09.026Z,7.33
2023-04-18T22:35:35.992Z,12.07
2023-04-18T22:38:02.901Z,7.70
2023-04-18T22:40:29.894Z,8.57
2023-04-18T22:42:56.830Z,14.63
2023-04-18T22:45:23.824Z,9.93
2023-04-18T22:47:50.808Z,8.80
2023-04-18T22:50:17.869Z,8.60
2023-04-18T22:52:45.047Z,6.53
2023-04-18T22:55:13.854Z,6.90
2023-04-18T22:57:40.735Z,10.80
2023-04-18T23:00:10.166Z,9.63
2023-04-18T23:02:37.483Z,7.80
2023-04-18T23:05:06.875Z,7.67
2023-04-18T23:07:33.793Z,7.97
2023-04-18T23:10:00.752Z,7.27
2023-04-18T23:12:27.799Z,6.23
2023-04-18T23:14:54.749Z,7.80
2023-04-18T23:17:21.615Z,6.50
2023-04-18T23:19:48.558Z,6.60
2023-04-18T23:22:15.494Z,7.43
2023-04-18T23:24:42.456Z,8.53
2023-04-18T23:27:09.674Z,9.83
2023-04-18T23:29:39.133Z,7.50
2023-04-18T23:32:06.590Z,10.47
2023-04-18T23:34:33.803Z,7.77
2023-04-18T23:37:01.080Z,7.10
2023-04-18T23:39:27.980Z,8.43
2023-04-18T23:41:54.829Z,8.47
2023-04-18T23:44:21.923Z,7.50
2023-04-18T23:46:49.208Z,9.87
2023-04-18T23:49:16.426Z,7.73
2023-04-18T23:51:43.330Z,7.20
2023-04-18T23:54:10.895Z,7.33
2023-04-18T23:56:37.916Z,9.00
2023-04-18T23:59:04.892Z,7.40
